Sweet Home, Texas
Current Conditions -  °F | °C
As of 1:55 AM on Friday 19 Dec 2014 (Local Time) from KT20 Reporting Station
Moderate Rain Moderate Rain  
Wind Chill: 12°   Ceiling: 800
Heat Index: 12°   Visibility: 10mi
Dew Point: 12°   Wind: 8mph
Humidity: 98%   Direction: 360°N
Pressure: 30.03"   Gusts: 16mph
Location:  29.35°N, 97.07°W
Report Text: KT20 190755Z AUTO 36007G14KT 10SM RA OVC008 12/12 A3003 RMK AO2 LTG DSNT NE AND S P0002 T01230120
Loading
Personal Weather Stations






























Interactive Weather Map New forecast layout! Learn more

10-Day Weather Forecast

Advertisements
Track Severe Weather on mobile